sensor_id;sensor_type;location;lat;lon;timestamp;P1;P2;P0
62591;PMS5003;48659;41.622;2.276;2024-03-08T00:00:40;9;9;
62591;PMS5003;48659;41.622;2.276;2024-03-08T00:03:14;11;10;
62591;PMS5003;48659;41.622;2.276;2024-03-08T00:05:42;8;7;
62591;PMS5003;48659;41.622;2.276;2024-03-08T00:08:12;7;7;
62591;PMS5003;48659;41.622;2.276;2024-03-08T00:10:40;6;6;
62591;PMS5003;48659;41.622;2.276;2024-03-08T00:13:08;10;6;
62591;PMS5003;48659;41.622;2.276;2024-03-08T00:15:35;12;10;
62591;PMS5003;48659;41.622;2.276;2024-03-08T00:18:02;8;8;
62591;PMS5003;48659;41.622;2.276;2024-03-08T00:20:31;7;5;
62591;PMS5003;48659;41.622;2.276;2024-03-08T00:22:58;8;7;
62591;PMS5003;48659;41.622;2.276;2024-03-08T00:25:26;6;6;
62591;PMS5003;48659;41.622;2.276;2024-03-08T00:27:54;9;5;
62591;PMS5003;48659;41.622;2.276;2024-03-08T00:30:21;9;9;
62591;PMS5003;48659;41.622;2.276;2024-03-08T00:32:48;7;6;
62591;PMS5003;48659;41.622;2.276;2024-03-08T00:35:16;6;4;
62591;PMS5003;48659;41.622;2.276;2024-03-08T00:37:44;5;5;
62591;PMS5003;48659;41.622;2.276;2024-03-08T00:40:11;6;4;
62591;PMS5003;48659;41.622;2.276;2024-03-08T00:42:40;4;4;
62591;PMS5003;48659;41.622;2.276;2024-03-08T00:45:15;7;7;
62591;PMS5003;48659;41.622;2.276;2024-03-08T00:47:43;8;8;
62591;PMS5003;48659;41.622;2.276;2024-03-08T00:50:22;4;4;
62591;PMS5003;48659;41.622;2.276;2024-03-08T00:52:50;4;4;
62591;PMS5003;48659;41.622;2.276;2024-03-08T00:55:18;5;5;
62591;PMS5003;48659;41.622;2.276;2024-03-08T00:57:45;4;4;
62591;PMS5003;48659;41.622;2.276;2024-03-08T01:00:16;4;4;
62591;PMS5003;48659;41.622;2.276;2024-03-08T01:02:44;7;6;
62591;PMS5003;48659;41.622;2.276;2024-03-08T01:05:12;5;5;
62591;PMS5003;48659;41.622;2.276;2024-03-08T01:07:39;3;3;
62591;PMS5003;48659;41.622;2.276;2024-03-08T01:10:15;7;6;
62591;PMS5003;48659;41.622;2.276;2024-03-08T01:12:43;8;6;
62591;PMS5003;48659;41.622;2.276;2024-03-08T01:15:16;3;3;
62591;PMS5003;48659;41.622;2.276;2024-03-08T01:17:44;3;3;
62591;PMS5003;48659;41.622;2.276;2024-03-08T01:20:28;5;5;
62591;PMS5003;48659;41.622;2.276;2024-03-08T01:22:55;5;3;
62591;PMS5003;48659;41.622;2.276;2024-03-08T01:25:23;6;6;
62591;PMS5003;48659;41.622;2.276;2024-03-08T01:27:50;6;6;
62591;PMS5003;48659;41.622;2.276;2024-03-08T01:30:18;4;4;
62591;PMS5003;48659;41.622;2.276;2024-03-08T01:32:45;6;4;
62591;PMS5003;48659;41.622;2.276;2024-03-08T01:35:13;4;3;
62591;PMS5003;48659;41.622;2.276;2024-03-08T01:37:41;6;6;
62591;PMS5003;48659;41.622;2.276;2024-03-08T01:40:09;8;6;
62591;PMS5003;48659;41.622;2.276;2024-03-08T01:42:37;4;4;
62591;PMS5003;48659;41.622;2.276;2024-03-08T01:45:14;6;5;
62591;PMS5003;48659;41.622;2.276;2024-03-08T01:47:41;5;5;
62591;PMS5003;48659;41.622;2.276;2024-03-08T01:50:09;4;4;
62591;PMS5003;48659;41.622;2.276;2024-03-08T01:52:36;9;5;
62591;PMS5003;48659;41.622;2.276;2024-03-08T01:55:05;6;6;
62591;PMS5003;48659;41.622;2.276;2024-03-08T01:57:33;10;6;
62591;PMS5003;48659;41.622;2.276;2024-03-08T02:00:01;6;5;
62591;PMS5003;48659;41.622;2.276;2024-03-08T02:02:30;6;4;
62591;PMS5003;48659;41.622;2.276;2024-03-08T02:04:58;5;5;
62591;PMS5003;48659;41.622;2.276;2024-03-08T02:07:26;7;7;
62591;PMS5003;48659;41.622;2.276;2024-03-08T02:09:53;6;5;
62591;PMS5003;48659;41.622;2.276;2024-03-08T02:12:22;6;6;
62591;PMS5003;48659;41.622;2.276;2024-03-08T02:14:50;8;8;
62591;PMS5003;48659;41.622;2.276;2024-03-08T02:17:17;8;5;
62591;PMS5003;48659;41.622;2.276;2024-03-08T02:19:44;8;8;
62591;PMS5003;48659;41.622;2.276;2024-03-08T02:22:11;9;8;
62591;PMS5003;48659;41.622;2.276;2024-03-08T02:24:39;10;8;
62591;PMS5003;48659;41.622;2.276;2024-03-08T02:27:06;9;8;
62591;PMS5003;48659;41.622;2.276;2024-03-08T02:29:34;9;7;
62591;PMS5003;48659;41.622;2.276;2024-03-08T02:32:02;12;9;
62591;PMS5003;48659;41.622;2.276;2024-03-08T02:34:31;8;8;
62591;PMS5003;48659;41.622;2.276;2024-03-08T02:36:58;6;6;
62591;PMS5003;48659;41.622;2.276;2024-03-08T02:39:25;6;5;
62591;PMS5003;48659;41.622;2.276;2024-03-08T02:41:52;8;7;
62591;PMS5003;48659;41.622;2.276;2024-03-08T02:44:19;9;8;
62591;PMS5003;48659;41.622;2.276;2024-03-08T02:46:47;6;6;
62591;PMS5003;48659;41.622;2.276;2024-03-08T02:49:14;8;6;
62591;PMS5003;48659;41.622;2.276;2024-03-08T02:51:41;11;8;
62591;PMS5003;48659;41.622;2.276;2024-03-08T02:54:08;7;7;
62591;PMS5003;48659;41.622;2.276;2024-03-08T02:56:35;9;7;
62591;PMS5003;48659;41.622;2.276;2024-03-08T02:59:03;10;9;
62591;PMS5003;48659;41.622;2.276;2024-03-08T03:01:30;11;10;
62591;PMS5003;48659;41.622;2.276;2024-03-08T03:03:58;14;10;
62591;PMS5003;48659;41.622;2.276;2024-03-08T03:06:25;8;7;
62591;PMS5003;48659;41.622;2.276;2024-03-08T03:08:52;11;8;
62591;PMS5003;48659;41.622;2.276;2024-03-08T03:11:20;10;10;
62591;PMS5003;48659;41.622;2.276;2024-03-08T03:13:47;10;9;
62591;PMS5003;48659;41.622;2.276;2024-03-08T03:16:16;10;8;
62591;PMS5003;48659;41.622;2.276;2024-03-08T03:18:44;9;7;
62591;PMS5003;48659;41.622;2.276;2024-03-08T03:21:11;5;5;
62591;PMS5003;48659;41.622;2.276;2024-03-08T03:23:38;7;7;
62591;PMS5003;48659;41.622;2.276;2024-03-08T03:26:14;12;11;
62591;PMS5003;48659;41.622;2.276;2024-03-08T03:28:42;10;9;
62591;PMS5003;48659;41.622;2.276;2024-03-08T03:31:10;4;4;
62591;PMS5003;48659;41.622;2.276;2024-03-08T03:33:37;5;5;
62591;PMS5003;48659;41.622;2.276;2024-03-08T03:36:05;7;5;
62591;PMS5003;48659;41.622;2.276;2024-03-08T03:36:14;6;5;
62591;PMS5003;48659;41.622;2.276;2024-03-08T03:38:42;8;6;
62591;PMS5003;48659;41.622;2.276;2024-03-08T03:45:16;3;3;
62591;PMS5003;48659;41.622;2.276;2024-03-08T03:45:54;3;3;
62591;PMS5003;48659;41.622;2.276;2024-03-08T03:48:22;6;6;
62591;PMS5003;48659;41.622;2.276;2024-03-08T03:50:49;8;8;
62591;PMS5003;48659;41.622;2.276;2024-03-08T03:53:16;8;6;
62591;PMS5003;48659;41.622;2.276;2024-03-08T03:55:44;9;8;
62591;PMS5003;48659;41.622;2.276;2024-03-08T03:58:11;9;7;
62591;PMS5003;48659;41.622;2.276;2024-03-08T04:00:39;9;9;
62591;PMS5003;48659;41.622;2.276;2024-03-08T04:03:06;6;6;
62591;PMS5003;48659;41.622;2.276;2024-03-08T04:05:33;5;5;
62591;PMS5003;48659;41.622;2.276;2024-03-08T04:08:00;4;4;
62591;PMS5003;48659;41.622;2.276;2024-03-08T04:10:35;3;3;
62591;PMS5003;48659;41.622;2.276;2024-03-08T04:13:02;6;5;
62591;PMS5003;48659;41.622;2.276;2024-03-08T04:15:36;4;4;
62591;PMS5003;48659;41.622;2.276;2024-03-08T04:18:03;3;3;
62591;PMS5003;48659;41.622;2.276;2024-03-08T04:20:34;5;3;
62591;PMS5003;48659;41.622;2.276;2024-03-08T04:23:02;2;2;
62591;PMS5003;48659;41.622;2.276;2024-03-08T04:25:35;4;3;
62591;PMS5003;48659;41.622;2.276;2024-03-08T04:28:03;4;4;
62591;PMS5003;48659;41.622;2.276;2024-03-08T04:30:35;3;3;
62591;PMS5003;48659;41.622;2.276;2024-03-08T04:33:03;5;4;
62591;PMS5003;48659;41.622;2.276;2024-03-08T04:35:31;3;3;
62591;PMS5003;48659;41.622;2.276;2024-03-08T04:37:59;5;5;
62591;PMS5003;48659;41.622;2.276;2024-03-08T04:40:35;5;4;
62591;PMS5003;48659;41.622;2.276;2024-03-08T04:43:03;5;5;
62591;PMS5003;48659;41.622;2.276;2024-03-08T04:45:31;5;5;
62591;PMS5003;48659;41.622;2.276;2024-03-08T04:47:58;5;5;
62591;PMS5003;48659;41.622;2.276;2024-03-08T04:50:26;4;3;
62591;PMS5003;48659;41.622;2.276;2024-03-08T04:53:02;5;3;
62591;PMS5003;48659;41.622;2.276;2024-03-08T04:55:35;8;4;
62591;PMS5003;48659;41.622;2.276;2024-03-08T04:58:03;3;3;
62591;PMS5003;48659;41.622;2.276;2024-03-08T05:00:35;4;4;
62591;PMS5003;48659;41.622;2.276;2024-03-08T05:03:02;5;4;
62591;PMS5003;48659;41.622;2.276;2024-03-08T05:05:36;4;4;
62591;PMS5003;48659;41.622;2.276;2024-03-08T05:08:05;2;2;
62591;PMS5003;48659;41.622;2.276;2024-03-08T05:10:32;4;3;
62591;PMS5003;48659;41.622;2.276;2024-03-08T05:13:00;6;3;
62591;PMS5003;48659;41.622;2.276;2024-03-08T05:15:35;4;3;
62591;PMS5003;48659;41.622;2.276;2024-03-08T05:18:03;3;3;
62591;PMS5003;48659;41.622;2.276;2024-03-08T05:20:31;4;3;
62591;PMS5003;48659;41.622;2.276;2024-03-08T05:22:58;1;1;
62591;PMS5003;48659;41.622;2.276;2024-03-08T05:25:37;3;2;
62591;PMS5003;48659;41.622;2.276;2024-03-08T05:28:04;3;2;
62591;PMS5003;48659;41.622;2.276;2024-03-08T05:30:32;0;0;
62591;PMS5003;48659;41.622;2.276;2024-03-08T05:33:00;2;2;
62591;PMS5003;48659;41.622;2.276;2024-03-08T05:35:35;2;2;
62591;PMS5003;48659;41.622;2.276;2024-03-08T05:38:03;2;2;
62591;PMS5003;48659;41.622;2.276;2024-03-08T05:40:30;4;3;
62591;PMS5003;48659;41.622;2.276;2024-03-08T05:42:58;4;2;
62591;PMS5003;48659;41.622;2.276;2024-03-08T05:45:25;2;2;
62591;PMS5003;48659;41.622;2.276;2024-03-08T05:47:53;3;1;
62591;PMS5003;48659;41.622;2.276;2024-03-08T05:50:21;2;2;
62591;PMS5003;48659;41.622;2.276;2024-03-08T05:52:48;3;3;
62591;PMS5003;48659;41.622;2.276;2024-03-08T05:55:15;3;3;
62591;PMS5003;48659;41.622;2.276;2024-03-08T05:57:42;4;4;
62591;PMS5003;48659;41.622;2.276;2024-03-08T06:00:10;5;5;
62591;PMS5003;48659;41.622;2.276;2024-03-08T06:02:37;3;3;
62591;PMS5003;48659;41.622;2.276;2024-03-08T06:05:05;5;3;
62591;PMS5003;48659;41.622;2.276;2024-03-08T06:07:35;2;2;
62591;PMS5003;48659;41.622;2.276;2024-03-08T06:10:03;6;4;
62591;PMS5003;48659;41.622;2.276;2024-03-08T06:12:31;10;7;
62591;PMS5003;48659;41.622;2.276;2024-03-08T06:14:58;11;10;
62591;PMS5003;48659;41.622;2.276;2024-03-08T06:17:33;10;10;
62591;PMS5003;48659;41.622;2.276;2024-03-08T06:20:01;6;6;
62591;PMS5003;48659;41.622;2.276;2024-03-08T06:22:36;6;6;
62591;PMS5003;48659;41.622;2.276;2024-03-08T06:25:04;6;6;
62591;PMS5003;48659;41.622;2.276;2024-03-08T06:27:35;7;7;
62591;PMS5003;48659;41.622;2.276;2024-03-08T06:30:04;16;10;
62591;PMS5003;48659;41.622;2.276;2024-03-08T06:32:32;8;8;
62591;PMS5003;48659;41.622;2.276;2024-03-08T06:35:00;7;7;
62591;PMS5003;48659;41.622;2.276;2024-03-08T06:37:35;10;5;
62591;PMS5003;48659;41.622;2.276;2024-03-08T06:40:03;10;10;
62591;PMS5003;48659;41.622;2.276;2024-03-08T06:42:32;4;4;
62591;PMS5003;48659;41.622;2.276;2024-03-08T06:44:59;8;5;
62591;PMS5003;48659;41.622;2.276;2024-03-08T06:47:27;8;6;
62591;PMS5003;48659;41.622;2.276;2024-03-08T06:49:55;6;6;
62591;PMS5003;48659;41.622;2.276;2024-03-08T06:52:22;7;5;
62591;PMS5003;48659;41.622;2.276;2024-03-08T06:54:49;7;5;
62591;PMS5003;48659;41.622;2.276;2024-03-08T06:57:16;13;12;
62591;PMS5003;48659;41.622;2.276;2024-03-08T06:59:44;4;4;
62591;PMS5003;48659;41.622;2.276;2024-03-08T07:02:12;4;4;
62591;PMS5003;48659;41.622;2.276;2024-03-08T07:04:40;6;4;
62591;PMS5003;48659;41.622;2.276;2024-03-08T07:07:07;5;4;
62591;PMS5003;48659;41.622;2.276;2024-03-08T07:09:35;6;6;
62591;PMS5003;48659;41.622;2.276;2024-03-08T07:12:02;4;3;
62591;PMS5003;48659;41.622;2.276;2024-03-08T07:14:31;6;6;
62591;PMS5003;48659;41.622;2.276;2024-03-08T07:16:58;6;5;
62591;PMS5003;48659;41.622;2.276;2024-03-08T07:19:31;4;4;
62591;PMS5003;48659;41.622;2.276;2024-03-08T07:21:59;2;2;
62591;PMS5003;48659;41.622;2.276;2024-03-08T07:24:36;5;5;
62591;PMS5003;48659;41.622;2.276;2024-03-08T07:27:03;4;4;
62591;PMS5003;48659;41.622;2.276;2024-03-08T07:29:36;6;5;
62591;PMS5003;48659;41.622;2.276;2024-03-08T07:32:03;8;5;
62591;PMS5003;48659;41.622;2.276;2024-03-08T07:34:32;4;4;
62591;PMS5003;48659;41.622;2.276;2024-03-08T07:36:59;8;6;
62591;PMS5003;48659;41.622;2.276;2024-03-08T07:39:34;6;5;
62591;PMS5003;48659;41.622;2.276;2024-03-08T07:42:01;5;3;
62591;PMS5003;48659;41.622;2.276;2024-03-08T07:44:34;4;4;
62591;PMS5003;48659;41.622;2.276;2024-03-08T07:47:06;8;8;
62591;PMS5003;48659;41.622;2.276;2024-03-08T07:49:34;4;4;
62591;PMS5003;48659;41.622;2.276;2024-03-08T07:52:02;5;3;
62591;PMS5003;48659;41.622;2.276;2024-03-08T07:54:36;4;4;
62591;PMS5003;48659;41.622;2.276;2024-03-08T07:57:03;5;3;
62591;PMS5003;48659;41.622;2.276;2024-03-08T07:59:35;4;4;
62591;PMS5003;48659;41.622;2.276;2024-03-08T08:02:02;3;2;
62591;PMS5003;48659;41.622;2.276;2024-03-08T08:04:37;6;6;
62591;PMS5003;48659;41.622;2.276;2024-03-08T08:07:06;7;4;
62591;PMS5003;48659;41.622;2.276;2024-03-08T08:09:36;3;3;
62591;PMS5003;48659;41.622;2.276;2024-03-08T08:12:03;2;2;
62591;PMS5003;48659;41.622;2.276;2024-03-08T08:14:35;2;2;
62591;PMS5003;48659;41.622;2.276;2024-03-08T08:17:02;1;1;
62591;PMS5003;48659;41.622;2.276;2024-03-08T08:19:29;2;2;
62591;PMS5003;48659;41.622;2.276;2024-03-08T08:21:57;1;1;
62591;PMS5003;48659;41.622;2.276;2024-03-08T08:24:24;2;2;
62591;PMS5003;48659;41.622;2.276;2024-03-08T08:26:51;1;1;
62591;PMS5003;48659;41.622;2.276;2024-03-08T08:29:18;1;1;
62591;PMS5003;48659;41.622;2.276;2024-03-08T08:31:51;1;1;
62591;PMS5003;48659;41.622;2.276;2024-03-08T08:34:19;1;1;
62591;PMS5003;48659;41.622;2.276;2024-03-08T08:36:47;1;0;
62591;PMS5003;48659;41.622;2.276;2024-03-08T08:39:15;0;0;
62591;PMS5003;48659;41.622;2.276;2024-03-08T08:41:43;2;2;
62591;PMS5003;48659;41.622;2.276;2024-03-08T08:44:10;2;1;
62591;PMS5003;48659;41.622;2.276;2024-03-08T08:46:38;1;1;
62591;PMS5003;48659;41.622;2.276;2024-03-08T08:49:06;0;0;
62591;PMS5003;48659;41.622;2.276;2024-03-08T08:51:35;2;2;
62591;PMS5003;48659;41.622;2.276;2024-03-08T08:54:03;3;2;
62591;PMS5003;48659;41.622;2.276;2024-03-08T08:56:36;1;1;
62591;PMS5003;48659;41.622;2.276;2024-03-08T08:59:03;3;2;
62591;PMS5003;48659;41.622;2.276;2024-03-08T09:01:36;2;2;
62591;PMS5003;48659;41.622;2.276;2024-03-08T09:04:04;4;4;
62591;PMS5003;48659;41.622;2.276;2024-03-08T09:06:31;0;0;
62591;PMS5003;48659;41.622;2.276;2024-03-08T09:08:59;0;0;
62591;PMS5003;48659;41.622;2.276;2024-03-08T09:11:27;0;0;
62591;PMS5003;48659;41.622;2.276;2024-03-08T09:13:55;2;1;
62591;PMS5003;48659;41.622;2.276;2024-03-08T09:16:22;1;1;
62591;PMS5003;48659;41.622;2.276;2024-03-08T09:18:49;0;0;
62591;PMS5003;48659;41.622;2.276;2024-03-08T09:21:17;0;0;
62591;PMS5003;48659;41.622;2.276;2024-03-08T09:23:44;0;0;
62591;PMS5003;48659;41.622;2.276;2024-03-08T09:26:12;0;0;
62591;PMS5003;48659;41.622;2.276;2024-03-08T09:28:39;0;0;
62591;PMS5003;48659;41.622;2.276;2024-03-08T09:31:06;1;1;
62591;PMS5003;48659;41.622;2.276;2024-03-08T09:33:35;1;1;
62591;PMS5003;48659;41.622;2.276;2024-03-08T09:36:03;1;1;
62591;PMS5003;48659;41.622;2.276;2024-03-08T09:38:36;0;0;
62591;PMS5003;48659;41.622;2.276;2024-03-08T09:41:04;0;0;
62591;PMS5003;48659;41.622;2.276;2024-03-08T09:43:35;0;0;
62591;PMS5003;48659;41.622;2.276;2024-03-08T09:46:04;0;0;
62591;PMS5003;48659;41.622;2.276;2024-03-08T09:48:33;0;0;
62591;PMS5003;48659;41.622;2.276;2024-03-08T09:51:02;0;0;
62591;PMS5003;48659;41.622;2.276;2024-03-08T09:53:35;0;0;
62591;PMS5003;48659;41.622;2.276;2024-03-08T09:56:03;2;2;
62591;PMS5003;48659;41.622;2.276;2024-03-08T09:58:31;1;1;
62591;PMS5003;48659;41.622;2.276;2024-03-08T10:00:58;0;0;
62591;PMS5003;48659;41.622;2.276;2024-03-08T10:03:35;1;1;
62591;PMS5003;48659;41.622;2.276;2024-03-08T10:06:02;1;1;
62591;PMS5003;48659;41.622;2.276;2024-03-08T10:08:30;0;0;
62591;PMS5003;48659;41.622;2.276;2024-03-08T10:10:58;0;0;
62591;PMS5003;48659;41.622;2.276;2024-03-08T10:13:26;0;0;
62591;PMS5003;48659;41.622;2.276;2024-03-08T10:16:11;0;0;
62591;PMS5003;48659;41.622;2.276;2024-03-08T10:18:39;1;1;
62591;PMS5003;48659;41.622;2.276;2024-03-08T10:21:07;0;0;
62591;PMS5003;48659;41.622;2.276;2024-03-08T10:23:36;2;2;
62591;PMS5003;48659;41.622;2.276;2024-03-08T10:26:10;2;2;
62591;PMS5003;48659;41.622;2.276;2024-03-08T10:28:38;2;2;
62591;PMS5003;48659;41.622;2.276;2024-03-08T10:31:05;2;2;
62591;PMS5003;48659;41.622;2.276;2024-03-08T10:33:34;2;2;
62591;PMS5003;48659;41.622;2.276;2024-03-08T10:36:02;3;3;
62591;PMS5003;48659;41.622;2.276;2024-03-08T10:38:31;3;3;
62591;PMS5003;48659;41.622;2.276;2024-03-08T10:40:58;3;3;
62591;PMS5003;48659;41.622;2.276;2024-03-08T10:43:28;4;2;
62591;PMS5003;48659;41.622;2.276;2024-03-08T10:46:04;4;3;
62591;PMS5003;48659;41.622;2.276;2024-03-08T10:48:42;4;2;
62591;PMS5003;48659;41.622;2.276;2024-03-08T10:51:11;4;3;
62591;PMS5003;48659;41.622;2.276;2024-03-08T10:53:42;4;4;
62591;PMS5003;48659;41.622;2.276;2024-03-08T10:56:12;2;2;
62591;PMS5003;48659;41.622;2.276;2024-03-08T10:58:41;0;0;
62591;PMS5003;48659;41.622;2.276;2024-03-08T11:01:09;0;0;
62591;PMS5003;48659;41.622;2.276;2024-03-08T11:03:45;0;0;
62591;PMS5003;48659;41.622;2.276;2024-03-08T11:06:15;0;0;
62591;PMS5003;48659;41.622;2.276;2024-03-08T11:08:44;0;0;
62591;PMS5003;48659;41.622;2.276;2024-03-08T11:11:29;0;0;
62591;PMS5003;48659;41.622;2.276;2024-03-08T11:13:58;1;1;
62591;PMS5003;48659;41.622;2.276;2024-03-08T11:16:41;0;0;
62591;PMS5003;48659;41.622;2.276;2024-03-08T11:19:27;0;0;
62591;PMS5003;48659;41.622;2.276;2024-03-08T11:21:58;0;0;
62591;PMS5003;48659;41.622;2.276;2024-03-08T11:24:37;0;0;
62591;PMS5003;48659;41.622;2.276;2024-03-08T11:27:05;0;0;
62591;PMS5003;48659;41.622;2.276;2024-03-08T11:29:36;0;0;
62591;PMS5003;48659;41.622;2.276;2024-03-08T11:32:05;2;2;
62591;PMS5003;48659;41.622;2.276;2024-03-08T11:34:35;0;0;
62591;PMS5003;48659;41.622;2.276;2024-03-08T11:37:04;1;1;
62591;PMS5003;48659;41.622;2.276;2024-03-08T11:39:32;0;0;
62591;PMS5003;48659;41.622;2.276;2024-03-08T11:42:00;0;0;
62591;PMS5003;48659;41.622;2.276;2024-03-08T11:44:36;0;0;
62591;PMS5003;48659;41.622;2.276;2024-03-08T11:47:08;0;0;
62591;PMS5003;48659;41.622;2.276;2024-03-08T11:49:36;1;0;
62591;PMS5003;48659;41.622;2.276;2024-03-08T11:52:03;0;0;
62591;PMS5003;48659;41.622;2.276;2024-03-08T11:54:36;0;0;
62591;PMS5003;48659;41.622;2.276;2024-03-08T11:57:04;0;0;
62591;PMS5003;48659;41.622;2.276;2024-03-08T11:59:37;2;2;
62591;PMS5003;48659;41.622;2.276;2024-03-08T12:02:06;1;0;
62591;PMS5003;48659;41.622;2.276;2024-03-08T12:04:37;0;0;
62591;PMS5003;48659;41.622;2.276;2024-03-08T12:07:04;0;0;
62591;PMS5003;48659;41.622;2.276;2024-03-08T12:09:36;0;0;
62591;PMS5003;48659;41.622;2.276;2024-03-08T12:12:04;1;1;
62591;PMS5003;48659;41.622;2.276;2024-03-08T12:14:34;1;1;
62591;PMS5003;48659;41.622;2.276;2024-03-08T12:17:01;0;0;
62591;PMS5003;48659;41.622;2.276;2024-03-08T12:19:36;1;0;
62591;PMS5003;48659;41.622;2.276;2024-03-08T12:22:08;0;0;
62591;PMS5003;48659;41.622;2.276;2024-03-08T12:24:35;1;1;
62591;PMS5003;48659;41.622;2.276;2024-03-08T12:27:17;0;0;
62591;PMS5003;48659;41.622;2.276;2024-03-08T12:29:45;0;0;
62591;PMS5003;48659;41.622;2.276;2024-03-08T12:32:12;1;1;
62591;PMS5003;48659;41.622;2.276;2024-03-08T12:34:40;1;1;
62591;PMS5003;48659;41.622;2.276;2024-03-08T12:37:08;1;1;
62591;PMS5003;48659;41.622;2.276;2024-03-08T12:39:36;1;1;
62591;PMS5003;48659;41.622;2.276;2024-03-08T12:42:03;0;0;
62591;PMS5003;48659;41.622;2.276;2024-03-08T12:44:36;1;1;
62591;PMS5003;48659;41.622;2.276;2024-03-08T12:47:03;0;0;
62591;PMS5003;48659;41.622;2.276;2024-03-08T12:49:35;0;0;
62591;PMS5003;48659;41.622;2.276;2024-03-08T12:52:03;0;0;
62591;PMS5003;48659;41.622;2.276;2024-03-08T12:54:36;0;0;
62591;PMS5003;48659;41.622;2.276;2024-03-08T12:57:04;0;0;
62591;PMS5003;48659;41.622;2.276;2024-03-08T12:59:35;1;1;
62591;PMS5003;48659;41.622;2.276;2024-03-08T13:02:04;0;0;
62591;PMS5003;48659;41.622;2.276;2024-03-08T13:04:36;1;1;
62591;PMS5003;48659;41.622;2.276;2024-03-08T13:07:05;0;0;
62591;PMS5003;48659;41.622;2.276;2024-03-08T13:09:32;1;1;
62591;PMS5003;48659;41.622;2.276;2024-03-08T13:12:00;0;0;
62591;PMS5003;48659;41.622;2.276;2024-03-08T13:14:35;1;0;
62591;PMS5003;48659;41.622;2.276;2024-03-08T13:17:03;0;0;
62591;PMS5003;48659;41.622;2.276;2024-03-08T13:19:36;0;0;
62591;PMS5003;48659;41.622;2.276;2024-03-08T13:22:03;0;0;
62591;PMS5003;48659;41.622;2.276;2024-03-08T13:24:36;1;1;
62591;PMS5003;48659;41.622;2.276;2024-03-08T13:27:04;1;1;
62591;PMS5003;48659;41.622;2.276;2024-03-08T13:29:32;0;0;
62591;PMS5003;48659;41.622;2.276;2024-03-08T13:31:59;2;0;
62591;PMS5003;48659;41.622;2.276;2024-03-08T13:34:35;1;0;
62591;PMS5003;48659;41.622;2.276;2024-03-08T13:37:03;0;0;
62591;PMS5003;48659;41.622;2.276;2024-03-08T13:39:34;0;0;
62591;PMS5003;48659;41.622;2.276;2024-03-08T13:42:03;0;0;
62591;PMS5003;48659;41.622;2.276;2024-03-08T13:44:37;1;1;
62591;PMS5003;48659;41.622;2.276;2024-03-08T13:47:05;0;0;
62591;PMS5003;48659;41.622;2.276;2024-03-08T13:49:35;0;0;
62591;PMS5003;48659;41.622;2.276;2024-03-08T13:52:02;0;0;
62591;PMS5003;48659;41.622;2.276;2024-03-08T13:54:30;0;0;
62591;PMS5003;48659;41.622;2.276;2024-03-08T13:56:58;1;1;
62591;PMS5003;48659;41.622;2.276;2024-03-08T13:59:26;0;0;
62591;PMS5003;48659;41.622;2.276;2024-03-08T14:02:07;0;0;
62591;PMS5003;48659;41.622;2.276;2024-03-08T14:04:34;0;0;
62591;PMS5003;48659;41.622;2.276;2024-03-08T14:07:02;0;0;
62591;PMS5003;48659;41.622;2.276;2024-03-08T14:09:35;0;0;
62591;PMS5003;48659;41.622;2.276;2024-03-08T14:12:04;0;0;
62591;PMS5003;48659;41.622;2.276;2024-03-08T14:14:33;0;0;
62591;PMS5003;48659;41.622;2.276;2024-03-08T14:17:01;0;0;
62591;PMS5003;48659;41.622;2.276;2024-03-08T14:19:29;1;1;
62591;PMS5003;48659;41.622;2.276;2024-03-08T14:21:56;0;0;
62591;PMS5003;48659;41.622;2.276;2024-03-08T14:24:42;0;0;
62591;PMS5003;48659;41.622;2.276;2024-03-08T14:27:09;0;0;
62591;PMS5003;48659;41.622;2.276;2024-03-08T14:29:37;0;0;
62591;PMS5003;48659;41.622;2.276;2024-03-08T14:32:05;0;0;
62591;PMS5003;48659;41.622;2.276;2024-03-08T14:34:35;0;0;
62591;PMS5003;48659;41.622;2.276;2024-03-08T14:37:02;0;0;
62591;PMS5003;48659;41.622;2.276;2024-03-08T14:39:37;0;0;
62591;PMS5003;48659;41.622;2.276;2024-03-08T14:42:05;1;1;
62591;PMS5003;48659;41.622;2.276;2024-03-08T14:44:33;0;0;
62591;PMS5003;48659;41.622;2.276;2024-03-08T14:47:00;0;0;
62591;PMS5003;48659;41.622;2.276;2024-03-08T14:49:35;1;1;
62591;PMS5003;48659;41.622;2.276;2024-03-08T14:52:03;0;0;
62591;PMS5003;48659;41.622;2.276;2024-03-08T14:54:33;0;0;
62591;PMS5003;48659;41.622;2.276;2024-03-08T14:57:00;0;0;
62591;PMS5003;48659;41.622;2.276;2024-03-08T14:59:35;1;1;
62591;PMS5003;48659;41.622;2.276;2024-03-08T15:02:02;0;0;
62591;PMS5003;48659;41.622;2.276;2024-03-08T15:04:30;1;1;
62591;PMS5003;48659;41.622;2.276;2024-03-08T15:06:58;0;0;
62591;PMS5003;48659;41.622;2.276;2024-03-08T15:09:36;1;1;
62591;PMS5003;48659;41.622;2.276;2024-03-08T15:12:03;2;1;
62591;PMS5003;48659;41.622;2.276;2024-03-08T15:14:39;2;1;
62591;PMS5003;48659;41.622;2.276;2024-03-08T15:17:07;1;1;
62591;PMS5003;48659;41.622;2.276;2024-03-08T15:19:35;2;2;
62591;PMS5003;48659;41.622;2.276;2024-03-08T15:22:02;1;1;
62591;PMS5003;48659;41.622;2.276;2024-03-08T15:24:30;1;1;
62591;PMS5003;48659;41.622;2.276;2024-03-08T15:26:58;0;0;
62591;PMS5003;48659;41.622;2.276;2024-03-08T15:29:25;0;0;
62591;PMS5003;48659;41.622;2.276;2024-03-08T15:31:53;2;2;
62591;PMS5003;48659;41.622;2.276;2024-03-08T15:34:20;0;0;
62591;PMS5003;48659;41.622;2.276;2024-03-08T15:36:48;1;1;
62591;PMS5003;48659;41.622;2.276;2024-03-08T15:39:16;0;0;
62591;PMS5003;48659;41.622;2.276;2024-03-08T15:41:45;2;1;
62591;PMS5003;48659;41.622;2.276;2024-03-08T15:44:13;0;0;
62591;PMS5003;48659;41.622;2.276;2024-03-08T15:46:40;5;0;
62591;PMS5003;48659;41.622;2.276;2024-03-08T15:49:08;0;0;
62591;PMS5003;48659;41.622;2.276;2024-03-08T15:51:35;0;0;
62591;PMS5003;48659;41.622;2.276;2024-03-08T15:54:02;1;1;
62591;PMS5003;48659;41.622;2.276;2024-03-08T15:56:29;2;0;
62591;PMS5003;48659;41.622;2.276;2024-03-08T15:58:57;0;0;
62591;PMS5003;48659;41.622;2.276;2024-03-08T16:01:25;0;0;
62591;PMS5003;48659;41.622;2.276;2024-03-08T16:03:53;2;2;
62591;PMS5003;48659;41.622;2.276;2024-03-08T16:06:20;1;1;
62591;PMS5003;48659;41.622;2.276;2024-03-08T16:08:47;0;0;
62591;PMS5003;48659;41.622;2.276;2024-03-08T16:11:16;0;0;
62591;PMS5003;48659;41.622;2.276;2024-03-08T16:13:44;3;0;
62591;PMS5003;48659;41.622;2.276;2024-03-08T16:16:11;1;1;
62591;PMS5003;48659;41.622;2.276;2024-03-08T16:18:38;3;3;
62591;PMS5003;48659;41.622;2.276;2024-03-08T16:21:05;0;0;
62591;PMS5003;48659;41.622;2.276;2024-03-08T16:23:36;2;2;
62591;PMS5003;48659;41.622;2.276;2024-03-08T16:26:03;4;1;
62591;PMS5003;48659;41.622;2.276;2024-03-08T16:28:36;0;0;
62591;PMS5003;48659;41.622;2.276;2024-03-08T16:31:03;0;0;
62591;PMS5003;48659;41.622;2.276;2024-03-08T16:33:36;1;1;
62591;PMS5003;48659;41.622;2.276;2024-03-08T16:36:04;0;0;
62591;PMS5003;48659;41.622;2.276;2024-03-08T16:38:37;0;0;
62591;PMS5003;48659;41.622;2.276;2024-03-08T16:41:05;1;1;
62591;PMS5003;48659;41.622;2.276;2024-03-08T16:43:35;0;0;
62591;PMS5003;48659;41.622;2.276;2024-03-08T16:46:03;1;1;
62591;PMS5003;48659;41.622;2.276;2024-03-08T16:48:36;3;1;
62591;PMS5003;48659;41.622;2.276;2024-03-08T16:51:04;1;1;
62591;PMS5003;48659;41.622;2.276;2024-03-08T16:53:34;1;1;
62591;PMS5003;48659;41.622;2.276;2024-03-08T16:56:02;0;0;
62591;PMS5003;48659;41.622;2.276;2024-03-08T16:58:34;0;0;
62591;PMS5003;48659;41.622;2.276;2024-03-08T17:01:02;1;1;
62591;PMS5003;48659;41.622;2.276;2024-03-08T17:03:30;1;1;